ASA303 PASI-KSEA
Flight info
| Callsign | ASA303 |
|---|---|
| Flight time | 1h 48m |
| Altitude | 35000 |
| Route | BKA4 BKA J195 ANN Q902 VIXOR MARNR8 |
| Aircraft | B739/M-SDE2E3FGHIRWXY/LB1 |
Departure
| Time | 2026-05-04 04:03 |
|---|---|
| Airport | Sitka Rocky Gutierrez Airport (PASI) |
Arrival
| Time | 2026-05-04 05:51 |
|---|---|
| Airport | Seattle–Tacoma International Airport (KSEA) |
| Time | Latitude | Longitude | Altitude | Speed | Heading |
|---|---|---|---|---|---|
| 2026-05-04 03:50 | 57.05231 | -135.36630 | 12 ft | 0 kts | 77° |
| 2026-05-04 03:57 | 57.05228 | -135.36655 | 11 ft | 2 kts | 77° |
| 2026-05-04 03:58 | 57.05222 | -135.36699 | 10 ft | 2 kts | 69° |
| 2026-05-04 03:58 | 57.05213 | -135.36720 | 10 ft | 2 kts | 36° |
| 2026-05-04 03:58 | 57.05199 | -135.36731 | 9 ft | 2 kts | 8° |
| 2026-05-04 03:59 | 57.05184 | -135.36729 | 9 ft | 2 kts | 341° |
| 2026-05-04 03:59 | 57.05173 | -135.36719 | 9 ft | 0 kts | 319° |
| 2026-05-04 03:59 | 57.05168 | -135.36710 | 9 ft | 1 kts | 315° |
| 2026-05-04 04:01 | 57.05170 | -135.36713 | 9 ft | 2 kts | 316° |
| 2026-05-04 04:01 | 57.05217 | -135.36795 | 8 ft | 17 kts | 315° |
| 2026-05-04 04:01 | 57.05318 | -135.36980 | 7 ft | 20 kts | 315° |
| 2026-05-04 04:01 | 57.05391 | -135.37128 | 5 ft | 11 kts | 294° |
| 2026-05-04 04:02 | 57.05376 | -135.37221 | 4 ft | 11 kts | 225° |
| 2026-05-04 04:02 | 57.05291 | -135.37209 | 4 ft | 12 kts | 135° |
| 2026-05-04 04:02 | 57.05144 | -135.36940 | 6 ft | 62 kts | 136° |
| 2026-05-04 04:02 | 57.04665 | -135.36076 | 7 ft | 131 kts | 136° |
| 2026-05-04 04:03 | 57.03881 | -135.34666 | 210 ft | 171 kts | 136° |
| 2026-05-04 04:03 | 57.03017 | -135.33232 | 965 ft | 165 kts | 150° |
| 2026-05-04 04:03 | 57.01963 | -135.32710 | 1696 ft | 162 kts | 179° |
| 2026-05-04 04:03 | 57.00841 | -135.32999 | 2205 ft | 170 kts | 204° |
| 2026-05-04 04:04 | 56.99852 | -135.34258 | 2615 ft | 179 kts | 231° |
| 2026-05-04 04:04 | 56.99157 | -135.36223 | 3025 ft | 191 kts | 244° |
| 2026-05-04 04:04 | 56.98484 | -135.38423 | 3393 ft | 208 kts | 243° |
| 2026-05-04 04:04 | 56.97731 | -135.40854 | 3778 ft | 228 kts | 244° |
| 2026-05-04 04:05 | 56.96927 | -135.43439 | 4233 ft | 245 kts | 244° |
| 2026-05-04 04:05 | 56.96054 | -135.46234 | 4783 ft | 258 kts | 244° |
| 2026-05-04 04:05 | 56.95078 | -135.48981 | 5577 ft | 264 kts | 234° |
| 2026-05-04 04:05 | 56.93628 | -135.51096 | 6443 ft | 272 kts | 213° |
| 2026-05-04 04:06 | 56.91832 | -135.52249 | 7236 ft | 279 kts | 202° |
| 2026-05-04 04:06 | 56.89961 | -135.53162 | 7890 ft | 286 kts | 200° |
| 2026-05-04 04:06 | 56.87951 | -135.53537 | 8615 ft | 298 kts | 182° |
| 2026-05-04 04:06 | 56.85925 | -135.52640 | 9320 ft | 310 kts | 162° |
| 2026-05-04 04:07 | 56.84103 | -135.50511 | 10009 ft | 320 kts | 141° |
| 2026-05-04 04:07 | 56.82578 | -135.47388 | 10338 ft | 340 kts | 130° |
| 2026-05-04 04:07 | 56.81127 | -135.43889 | 10518 ft | 361 kts | 129° |
| 2026-05-04 04:07 | 56.79578 | -135.40093 | 10688 ft | 382 kts | 128° |
| 2026-05-04 04:08 | 56.77954 | -135.36151 | 10911 ft | 400 kts | 129° |
| 2026-05-04 04:08 | 56.76252 | -135.32060 | 11278 ft | 412 kts | 129° |
| 2026-05-04 04:08 | 56.74508 | -135.27895 | 11935 ft | 415 kts | 129° |
| 2026-05-04 04:08 | 56.72756 | -135.23726 | 12636 ft | 417 kts | 129° |
| 2026-05-04 04:09 | 56.71000 | -135.19562 | 13336 ft | 418 kts | 129° |
| 2026-05-04 04:09 | 56.69218 | -135.15347 | 13980 ft | 420 kts | 129° |
| 2026-05-04 04:09 | 56.67449 | -135.11174 | 14498 ft | 426 kts | 129° |
| 2026-05-04 04:09 | 56.65640 | -135.06912 | 15136 ft | 428 kts | 130° |
| 2026-05-04 04:10 | 56.63814 | -135.02618 | 15787 ft | 429 kts | 130° |
| 2026-05-04 04:10 | 56.61996 | -134.98352 | 16364 ft | 432 kts | 130° |
| 2026-05-04 04:10 | 56.60145 | -134.94017 | 16912 ft | 436 kts | 130° |
| 2026-05-04 04:10 | 56.58286 | -134.89670 | 17470 ft | 438 kts | 130° |
| 2026-05-04 04:11 | 56.56434 | -134.85347 | 18065 ft | 439 kts | 130° |
| 2026-05-04 04:11 | 56.54561 | -134.80983 | 18648 ft | 441 kts | 130° |
| 2026-05-04 04:11 | 56.52679 | -134.76608 | 19102 ft | 445 kts | 130° |
| 2026-05-04 04:11 | 56.50752 | -134.72136 | 19483 ft | 452 kts | 130° |
| 2026-05-04 04:12 | 56.48821 | -134.67665 | 19792 ft | 459 kts | 130° |
| 2026-05-04 04:12 | 56.46844 | -134.63097 | 20270 ft | 463 kts | 130° |
| 2026-05-04 04:12 | 56.44872 | -134.58546 | 20790 ft | 464 kts | 130° |
| 2026-05-04 04:12 | 56.42898 | -134.53996 | 21411 ft | 462 kts | 130° |
| 2026-05-04 04:13 | 56.40917 | -134.49435 | 21958 ft | 462 kts | 130° |
| 2026-05-04 04:13 | 56.38923 | -134.44859 | 22362 ft | 466 kts | 130° |
| 2026-05-04 04:13 | 56.36926 | -134.40286 | 22684 ft | 471 kts | 130° |
| 2026-05-04 04:13 | 56.34879 | -134.35606 | 23035 ft | 475 kts | 130° |
| 2026-05-04 04:14 | 56.32835 | -134.30942 | 23418 ft | 477 kts | 131° |
| 2026-05-04 04:14 | 56.30806 | -134.26321 | 23893 ft | 478 kts | 131° |
| 2026-05-04 04:14 | 56.28734 | -134.21608 | 24197 ft | 482 kts | 131° |
| 2026-05-04 04:14 | 56.26654 | -134.16893 | 24504 ft | 487 kts | 131° |
| 2026-05-04 04:15 | 56.24554 | -134.12135 | 24870 ft | 490 kts | 131° |
| 2026-05-04 04:15 | 56.22417 | -134.07303 | 25289 ft | 491 kts | 131° |
| 2026-05-04 04:15 | 56.20306 | -134.02541 | 25634 ft | 494 kts | 131° |
| 2026-05-04 04:15 | 56.18160 | -133.97708 | 26006 ft | 496 kts | 131° |
| 2026-05-04 04:16 | 56.16026 | -133.92914 | 26353 ft | 498 kts | 131° |
| 2026-05-04 04:16 | 56.13851 | -133.88037 | 26750 ft | 500 kts | 131° |
| 2026-05-04 04:16 | 56.11680 | -133.83177 | 27081 ft | 502 kts | 131° |
| 2026-05-04 04:16 | 56.09513 | -133.78339 | 27363 ft | 506 kts | 131° |
| 2026-05-04 04:17 | 56.07327 | -133.73467 | 27764 ft | 506 kts | 131° |
| 2026-05-04 04:17 | 56.05113 | -133.68541 | 28096 ft | 508 kts | 131° |
| 2026-05-04 04:17 | 56.02904 | -133.63637 | 28461 ft | 509 kts | 131° |
| 2026-05-04 04:17 | 56.00680 | -133.58710 | 28811 ft | 511 kts | 131° |
| 2026-05-04 04:18 | 55.98457 | -133.53795 | 29173 ft | 512 kts | 131° |
| 2026-05-04 04:18 | 55.96222 | -133.48863 | 29556 ft | 512 kts | 131° |
| 2026-05-04 04:18 | 55.93990 | -133.43947 | 30006 ft | 510 kts | 131° |
| 2026-05-04 04:18 | 55.91754 | -133.39032 | 30398 ft | 510 kts | 131° |
| 2026-05-04 04:19 | 55.89543 | -133.34181 | 30899 ft | 507 kts | 132° |
| 2026-05-04 04:19 | 55.87313 | -133.29300 | 31292 ft | 506 kts | 132° |
| 2026-05-04 04:19 | 55.85108 | -133.24484 | 31624 ft | 506 kts | 132° |
| 2026-05-04 04:19 | 55.82876 | -133.19620 | 31948 ft | 506 kts | 131° |
| 2026-05-04 04:20 | 55.80675 | -133.14830 | 32298 ft | 505 kts | 132° |
| 2026-05-04 04:20 | 55.78457 | -133.10017 | 32578 ft | 506 kts | 131° |
| 2026-05-04 04:20 | 55.76219 | -133.05168 | 32913 ft | 505 kts | 132° |
| 2026-05-04 04:20 | 55.74011 | -133.00395 | 33170 ft | 507 kts | 131° |
| 2026-05-04 04:21 | 55.71760 | -132.95537 | 33523 ft | 505 kts | 131° |
| 2026-05-04 04:21 | 55.69537 | -132.90749 | 33866 ft | 504 kts | 132° |
| 2026-05-04 04:21 | 55.67285 | -132.85910 | 34112 ft | 505 kts | 132° |
| 2026-05-04 04:21 | 55.65053 | -132.81123 | 34376 ft | 506 kts | 131° |
| 2026-05-04 04:22 | 55.62808 | -132.76320 | 34658 ft | 506 kts | 132° |
| 2026-05-04 04:22 | 55.60568 | -132.71535 | 34940 ft | 505 kts | 132° |
| 2026-05-04 04:22 | 55.58320 | -132.66742 | 35176 ft | 506 kts | 131° |
| 2026-05-04 04:22 | 55.56088 | -132.61992 | 35183 ft | 508 kts | 131° |
| 2026-05-04 04:23 | 55.51587 | -132.52446 | 35186 ft | 507 kts | 131° |
| 2026-05-04 04:23 | 55.47069 | -132.42897 | 35187 ft | 506 kts | 131° |
| 2026-05-04 04:24 | 55.42588 | -132.33462 | 35170 ft | 504 kts | 132° |
| 2026-05-04 04:24 | 55.38092 | -132.24034 | 35178 ft | 506 kts | 132° |
| 2026-05-04 04:25 | 55.33541 | -132.14529 | 35176 ft | 507 kts | 132° |
| 2026-05-04 04:25 | 55.29025 | -132.05135 | 35171 ft | 508 kts | 132° |
| 2026-05-04 04:26 | 55.24468 | -131.95691 | 35179 ft | 507 kts | 132° |
| 2026-05-04 04:26 | 55.19939 | -131.86340 | 35177 ft | 507 kts | 131° |
| 2026-05-04 04:27 | 55.15377 | -131.76961 | 35168 ft | 507 kts | 131° |
| 2026-05-04 04:27 | 55.10798 | -131.67581 | 35173 ft | 508 kts | 131° |
| 2026-05-04 04:28 | 55.05856 | -131.58919 | 35167 ft | 504 kts | 142° |
| 2026-05-04 04:28 | 55.00225 | -131.51799 | 35152 ft | 503 kts | 149° |
| 2026-05-04 04:29 | 54.94326 | -131.45259 | 35131 ft | 501 kts | 150° |
| 2026-05-04 04:29 | 54.88410 | -131.38879 | 35128 ft | 501 kts | 150° |
| 2026-05-04 04:30 | 54.82504 | -131.32556 | 35126 ft | 501 kts | 151° |
| 2026-05-04 04:30 | 54.76584 | -131.26245 | 35124 ft | 501 kts | 151° |
| 2026-05-04 04:31 | 54.70648 | -131.19931 | 35122 ft | 502 kts | 150° |
| 2026-05-04 04:31 | 54.64994 | -131.12920 | 35119 ft | 504 kts | 144° |
| 2026-05-04 04:32 | 54.59336 | -131.05801 | 35113 ft | 502 kts | 149° |
| 2026-05-04 04:32 | 54.53407 | -130.99548 | 35118 ft | 502 kts | 152° |
| 2026-05-04 04:33 | 54.47413 | -130.93399 | 35109 ft | 502 kts | 151° |
| 2026-05-04 04:33 | 54.41430 | -130.87260 | 35110 ft | 501 kts | 151° |
| 2026-05-04 04:34 | 54.35492 | -130.81165 | 35110 ft | 501 kts | 151° |
| 2026-05-04 04:34 | 54.29504 | -130.75027 | 35112 ft | 501 kts | 151° |
| 2026-05-04 04:35 | 54.23551 | -130.68942 | 35116 ft | 501 kts | 151° |
| 2026-05-04 04:35 | 54.17553 | -130.62828 | 35107 ft | 502 kts | 150° |
| 2026-05-04 04:36 | 54.11615 | -130.56795 | 35103 ft | 501 kts | 150° |
| 2026-05-04 04:36 | 54.05609 | -130.50714 | 35098 ft | 502 kts | 150° |
| 2026-05-04 04:37 | 53.93652 | -130.38666 | 35093 ft | 501 kts | 150° |
| 2026-05-04 04:38 | 53.87669 | -130.32669 | 35090 ft | 501 kts | 151° |
| 2026-05-04 04:38 | 53.81710 | -130.26717 | 35081 ft | 501 kts | 151° |
| 2026-05-04 04:39 | 53.75686 | -130.20717 | 35080 ft | 501 kts | 151° |
| 2026-05-04 04:39 | 53.69688 | -130.14766 | 35081 ft | 501 kts | 151° |
| 2026-05-04 04:40 | 53.63703 | -130.08847 | 35060 ft | 501 kts | 150° |
| 2026-05-04 04:40 | 53.57714 | -130.02943 | 35068 ft | 500 kts | 150° |
| 2026-05-04 04:41 | 53.51732 | -129.97066 | 35054 ft | 502 kts | 150° |
| 2026-05-04 04:41 | 53.45700 | -129.91161 | 35049 ft | 500 kts | 150° |
| 2026-05-04 04:42 | 53.39679 | -129.85284 | 35053 ft | 500 kts | 150° |
| 2026-05-04 04:42 | 53.33700 | -129.79469 | 35041 ft | 501 kts | 150° |
| 2026-05-04 04:43 | 53.27657 | -129.73610 | 35031 ft | 500 kts | 150° |
| 2026-05-04 04:43 | 53.21659 | -129.67815 | 35027 ft | 499 kts | 150° |
| 2026-05-04 04:44 | 53.15657 | -129.62033 | 35029 ft | 501 kts | 150° |
| 2026-05-04 04:44 | 53.09609 | -129.56227 | 35015 ft | 501 kts | 149° |
| 2026-05-04 04:45 | 53.03587 | -129.50465 | 35013 ft | 500 kts | 149° |
| 2026-05-04 04:47 | 52.82590 | -129.30304 | 34996 ft | 500 kts | 150° |
| 2026-05-04 04:47 | 52.76560 | -129.24551 | 34996 ft | 500 kts | 150° |
| 2026-05-04 04:48 | 52.70537 | -129.18825 | 34986 ft | 501 kts | 150° |
| 2026-05-04 04:49 | 52.55447 | -129.04562 | 34973 ft | 500 kts | 149° |
| 2026-05-04 04:49 | 52.49453 | -128.98927 | 34964 ft | 500 kts | 149° |
| 2026-05-04 04:50 | 52.43397 | -128.93254 | 34966 ft | 501 kts | 149° |
| 2026-05-04 04:50 | 52.37339 | -128.87598 | 34964 ft | 501 kts | 149° |
| 2026-05-04 04:51 | 52.31329 | -128.82002 | 34966 ft | 501 kts | 149° |
| 2026-05-04 04:51 | 52.25275 | -128.76386 | 34966 ft | 501 kts | 149° |
| 2026-05-04 04:52 | 52.19230 | -128.70792 | 34963 ft | 500 kts | 149° |
| 2026-05-04 04:52 | 52.13168 | -128.65195 | 34957 ft | 500 kts | 149° |
| 2026-05-04 04:53 | 52.07141 | -128.59648 | 34958 ft | 501 kts | 149° |
| 2026-05-04 04:53 | 52.01069 | -128.54076 | 34955 ft | 500 kts | 149° |
| 2026-05-04 04:54 | 51.95030 | -128.48553 | 34957 ft | 499 kts | 149° |
| 2026-05-04 04:54 | 51.89017 | -128.43072 | 34960 ft | 498 kts | 148° |
| 2026-05-04 04:55 | 51.82944 | -128.37552 | 34963 ft | 498 kts | 148° |
| 2026-05-04 04:55 | 51.76937 | -128.32111 | 34965 ft | 499 kts | 149° |
| 2026-05-04 04:56 | 51.70878 | -128.26637 | 34963 ft | 499 kts | 149° |
| 2026-05-04 04:56 | 51.64858 | -128.21217 | 34956 ft | 498 kts | 149° |
| 2026-05-04 04:57 | 51.58803 | -128.15782 | 34954 ft | 499 kts | 149° |
| 2026-05-04 04:57 | 51.52746 | -128.10362 | 34954 ft | 498 kts | 149° |
| 2026-05-04 04:58 | 51.46727 | -128.04993 | 34956 ft | 497 kts | 149° |
| 2026-05-04 04:58 | 51.40697 | -127.99629 | 34959 ft | 497 kts | 149° |
| 2026-05-04 04:59 | 51.34644 | -127.94262 | 34958 ft | 497 kts | 148° |
| 2026-05-04 04:59 | 51.28632 | -127.88949 | 34961 ft | 496 kts | 148° |
| 2026-05-04 05:00 | 51.22559 | -127.83597 | 34966 ft | 495 kts | 148° |
| 2026-05-04 05:01 | 51.13552 | -127.75688 | 34962 ft | 496 kts | 148° |
| 2026-05-04 05:01 | 51.07536 | -127.70426 | 34962 ft | 495 kts | 148° |
| 2026-05-04 05:02 | 51.01481 | -127.65147 | 34966 ft | 495 kts | 148° |
| 2026-05-04 05:02 | 50.95471 | -127.59921 | 34966 ft | 494 kts | 148° |
| 2026-05-04 05:03 | 50.89465 | -127.54715 | 34962 ft | 494 kts | 148° |
| 2026-05-04 05:04 | 50.77399 | -127.44302 | 34959 ft | 495 kts | 148° |
| 2026-05-04 05:04 | 50.71437 | -127.38967 | 34956 ft | 491 kts | 142° |
| 2026-05-04 05:06 | 50.56403 | -127.11135 | 34951 ft | 477 kts | 121° |
| 2026-05-04 05:06 | 50.54436 | -127.06928 | 34946 ft | 477 kts | 121° |
| 2026-05-04 05:07 | 50.50517 | -126.98601 | 34944 ft | 477 kts | 121° |
| 2026-05-04 05:07 | 50.46579 | -126.90290 | 34951 ft | 476 kts | 121° |
| 2026-05-04 05:09 | 50.28733 | -126.53037 | 35002 ft | 476 kts | 121° |
| 2026-05-04 05:10 | 50.24752 | -126.44801 | 35040 ft | 477 kts | 121° |
| 2026-05-04 05:10 | 50.20758 | -126.36565 | 35045 ft | 475 kts | 121° |
| 2026-05-04 05:11 | 50.16790 | -126.28410 | 35052 ft | 475 kts | 122° |
| 2026-05-04 05:11 | 50.12798 | -126.20229 | 35043 ft | 476 kts | 122° |
| 2026-05-04 05:12 | 50.08802 | -126.12065 | 35031 ft | 476 kts | 122° |
| 2026-05-04 05:12 | 50.04777 | -126.03872 | 35031 ft | 475 kts | 122° |
| 2026-05-04 05:13 | 50.00776 | -125.95748 | 35017 ft | 474 kts | 122° |
| 2026-05-04 05:13 | 49.96782 | -125.87667 | 34992 ft | 474 kts | 122° |
| 2026-05-04 05:14 | 49.92761 | -125.79555 | 34982 ft | 474 kts | 122° |
| 2026-05-04 05:14 | 49.88746 | -125.71477 | 34973 ft | 475 kts | 122° |
| 2026-05-04 05:15 | 49.84719 | -125.63405 | 34983 ft | 473 kts | 122° |
| 2026-05-04 05:15 | 49.80711 | -125.55393 | 34992 ft | 474 kts | 121° |
| 2026-05-04 05:16 | 49.76680 | -125.47359 | 34994 ft | 474 kts | 121° |
| 2026-05-04 05:16 | 49.72659 | -125.39368 | 35002 ft | 472 kts | 121° |
| 2026-05-04 05:17 | 49.68602 | -125.31330 | 34968 ft | 474 kts | 122° |
| 2026-05-04 05:17 | 49.64578 | -125.23382 | 34938 ft | 473 kts | 122° |
| 2026-05-04 05:18 | 49.60523 | -125.15402 | 34926 ft | 474 kts | 122° |
| 2026-05-04 05:18 | 49.56461 | -125.07432 | 34932 ft | 475 kts | 122° |
| 2026-05-04 05:19 | 49.52379 | -124.99465 | 34971 ft | 474 kts | 122° |
| 2026-05-04 05:19 | 49.48295 | -124.91515 | 34942 ft | 475 kts | 122° |
| 2026-05-04 05:20 | 49.44190 | -124.83548 | 34904 ft | 474 kts | 122° |
| 2026-05-04 05:20 | 49.40125 | -124.75685 | 34890 ft | 474 kts | 122° |
| 2026-05-04 05:21 | 49.36020 | -124.67764 | 34892 ft | 473 kts | 122° |
| 2026-05-04 05:21 | 49.31937 | -124.59911 | 34917 ft | 472 kts | 122° |
| 2026-05-04 05:22 | 49.27870 | -124.52110 | 34942 ft | 472 kts | 122° |
| 2026-05-04 05:22 | 49.23780 | -124.44288 | 34943 ft | 472 kts | 122° |
| 2026-05-04 05:23 | 49.19676 | -124.36462 | 34935 ft | 472 kts | 122° |
| 2026-05-04 05:23 | 49.15582 | -124.28680 | 34919 ft | 472 kts | 123° |
| 2026-05-04 05:24 | 49.11462 | -124.20870 | 34916 ft | 471 kts | 123° |
| 2026-05-04 05:24 | 49.07338 | -124.13077 | 34912 ft | 471 kts | 123° |
| 2026-05-04 05:25 | 49.03232 | -124.05338 | 34909 ft | 471 kts | 123° |
| 2026-05-04 05:25 | 48.99143 | -123.97654 | 34912 ft | 469 kts | 123° |
| 2026-05-04 05:26 | 48.95039 | -123.89962 | 34904 ft | 470 kts | 123° |
| 2026-05-04 05:26 | 48.90918 | -123.82262 | 34891 ft | 470 kts | 123° |
| 2026-05-04 05:28 | 48.74339 | -123.51747 | 34886 ft | 470 kts | 126° |
| 2026-05-04 05:29 | 48.69421 | -123.45378 | 34890 ft | 482 kts | 139° |
| 2026-05-04 05:29 | 48.63750 | -123.39938 | 34872 ft | 485 kts | 142° |
| 2026-05-04 05:31 | 48.43558 | -123.21317 | 29278 ft | 496 kts | 144° |
| 2026-05-04 05:31 | 48.40647 | -123.18634 | 28635 ft | 492 kts | 145° |
| 2026-05-04 05:32 | 48.37746 | -123.15964 | 27928 ft | 488 kts | 145° |
| 2026-05-04 05:32 | 48.34870 | -123.13319 | 27275 ft | 484 kts | 145° |
| 2026-05-04 05:32 | 48.32019 | -123.10702 | 26939 ft | 472 kts | 145° |
| 2026-05-04 05:33 | 48.26439 | -123.05587 | 25530 ft | 466 kts | 145° |
| 2026-05-04 05:33 | 48.23737 | -123.03116 | 24843 ft | 452 kts | 145° |
| 2026-05-04 05:33 | 48.21083 | -123.00693 | 24213 ft | 438 kts | 145° |
| 2026-05-04 05:33 | 48.18520 | -122.98355 | 23573 ft | 426 kts | 145° |
| 2026-05-04 05:34 | 48.16041 | -122.96094 | 22949 ft | 415 kts | 145° |
| 2026-05-04 05:34 | 48.13601 | -122.93870 | 22358 ft | 404 kts | 146° |
| 2026-05-04 05:34 | 48.11248 | -122.91724 | 21781 ft | 395 kts | 146° |
| 2026-05-04 05:34 | 48.08909 | -122.89593 | 21172 ft | 390 kts | 146° |
| 2026-05-04 05:35 | 48.06579 | -122.87470 | 20612 ft | 397 kts | 146° |
| 2026-05-04 05:35 | 48.04214 | -122.85318 | 20140 ft | 396 kts | 146° |
| 2026-05-04 05:35 | 48.01911 | -122.83230 | 19913 ft | 385 kts | 146° |
| 2026-05-04 05:35 | 47.99635 | -122.81166 | 19379 ft | 384 kts | 146° |
| 2026-05-04 05:36 | 47.97342 | -122.79089 | 18776 ft | 385 kts | 146° |
| 2026-05-04 05:36 | 47.95057 | -122.77018 | 18221 ft | 384 kts | 147° |
| 2026-05-04 05:36 | 47.92779 | -122.74957 | 17668 ft | 382 kts | 147° |
| 2026-05-04 05:36 | 47.90523 | -122.72920 | 17164 ft | 378 kts | 147° |
| 2026-05-04 05:37 | 47.88284 | -122.70905 | 16620 ft | 372 kts | 147° |
| 2026-05-04 05:37 | 47.86115 | -122.68953 | 16128 ft | 366 kts | 147° |
| 2026-05-04 05:37 | 47.83954 | -122.67011 | 15578 ft | 360 kts | 147° |
| 2026-05-04 05:38 | 47.79733 | -122.63222 | 14546 ft | 349 kts | 147° |
| 2026-05-04 05:38 | 47.77682 | -122.61383 | 14031 ft | 345 kts | 147° |
| 2026-05-04 05:38 | 47.75624 | -122.59541 | 13528 ft | 340 kts | 147° |
| 2026-05-04 05:38 | 47.73641 | -122.57766 | 13196 ft | 332 kts | 147° |
| 2026-05-04 05:39 | 47.71662 | -122.56066 | 12996 ft | 321 kts | 150° |
| 2026-05-04 05:39 | 47.67674 | -122.53276 | 12146 ft | 320 kts | 154° |
| 2026-05-04 05:39 | 47.65657 | -122.51926 | 11740 ft | 318 kts | 154° |
| 2026-05-04 05:40 | 47.61651 | -122.49210 | 10912 ft | 317 kts | 153° |
| 2026-05-04 05:40 | 47.59640 | -122.47837 | 10486 ft | 316 kts | 153° |
| 2026-05-04 05:40 | 47.57628 | -122.46629 | 10078 ft | 316 kts | 163° |
| 2026-05-04 05:41 | 47.55477 | -122.46260 | 9840 ft | 307 kts | 178° |
| 2026-05-04 05:41 | 47.53386 | -122.46299 | 9566 ft | 296 kts | 180° |
| 2026-05-04 05:41 | 47.51326 | -122.46373 | 9147 ft | 297 kts | 180° |
| 2026-05-04 05:41 | 47.49252 | -122.46425 | 8753 ft | 296 kts | 180° |
| 2026-05-04 05:42 | 47.47210 | -122.46458 | 8458 ft | 292 kts | 179° |
| 2026-05-04 05:42 | 47.45202 | -122.46483 | 8279 ft | 285 kts | 179° |
| 2026-05-04 05:42 | 47.43217 | -122.46503 | 7865 ft | 286 kts | 179° |
| 2026-05-04 05:42 | 47.41239 | -122.46521 | 7508 ft | 286 kts | 179° |
| 2026-05-04 05:43 | 47.39237 | -122.46539 | 7175 ft | 284 kts | 179° |
| 2026-05-04 05:43 | 47.37295 | -122.46557 | 7029 ft | 274 kts | 179° |
| 2026-05-04 05:43 | 47.35437 | -122.46574 | 6970 ft | 263 kts | 179° |
| 2026-05-04 05:45 | 47.25569 | -122.40014 | 4551 ft | 223 kts | 90° |
| 2026-05-04 05:45 | 47.25652 | -122.37801 | 4258 ft | 214 kts | 76° |
| 2026-05-04 05:47 | 47.32600 | -122.31915 | 2571 ft | 160 kts | 2° |
| 2026-05-04 05:47 | 47.33714 | -122.31897 | 2386 ft | 160 kts | 2° |
| 2026-05-04 05:47 | 47.34831 | -122.31885 | 2160 ft | 163 kts | 2° |
| 2026-05-04 05:48 | 47.35936 | -122.31876 | 1948 ft | 155 kts | 2° |
| 2026-05-04 05:48 | 47.37005 | -122.31866 | 1732 ft | 154 kts | 3° |
| 2026-05-04 05:48 | 47.38074 | -122.31857 | 1528 ft | 154 kts | 2° |
| 2026-05-04 05:48 | 47.39151 | -122.31847 | 1334 ft | 155 kts | 2° |
| 2026-05-04 05:49 | 47.40232 | -122.31835 | 1145 ft | 158 kts | 2° |
| 2026-05-04 05:49 | 47.41321 | -122.31815 | 979 ft | 153 kts | 2° |
| 2026-05-04 05:49 | 47.42392 | -122.31822 | 785 ft | 153 kts | 0° |
| 2026-05-04 05:49 | 47.43436 | -122.31824 | 589 ft | 150 kts | 1° |
| 2026-05-04 05:51 | 47.46011 | -122.31299 | 429 ft | 19 kts | 90° |
| 2026-05-04 05:51 | 47.46009 | -122.31102 | 429 ft | 18 kts | 91° |
| 2026-05-04 05:52 | 47.46008 | -122.30920 | 429 ft | 17 kts | 90° |
| 2026-05-04 05:52 | 47.46008 | -122.30750 | 429 ft | 15 kts | 91° |
| 2026-05-04 05:52 | 47.45975 | -122.30628 | 429 ft | 12 kts | 152° |
| 2026-05-04 05:52 | 47.45891 | -122.30619 | 429 ft | 12 kts | 180° |
| 2026-05-04 05:53 | 47.45772 | -122.30616 | 429 ft | 23 kts | 180° |
| 2026-05-04 05:54 | 47.45025 | -122.30355 | 429 ft | 11 kts | 70° |
| 2026-05-04 05:55 | 47.45016 | -122.30254 | 429 ft | 9 kts | 129° |
| 2026-05-04 05:55 | 47.44969 | -122.30174 | 429 ft | 12 kts | 130° |
| 2026-05-04 05:55 | 47.44914 | -122.30084 | 429 ft | 7 kts | 149° |
| 2026-05-04 05:55 | 47.44877 | -122.30090 | 429 ft | 5 kts | 211° |
| 2026-05-04 05:56 | 47.44861 | -122.30106 | 429 ft | 0 kts | 218° |